createdAt,value
2022-08-07T00:00:52.506Z,84.70
2022-08-07T00:05:54.696Z,85.20
2022-08-07T00:10:57.471Z,86.20
2022-08-07T00:16:00.322Z,86.10
2022-08-07T00:21:08.130Z,86.50
2022-08-07T00:26:49.399Z,86.80
2022-08-07T00:31:49.346Z,87.70
2022-08-07T00:36:53.373Z,88.30
2022-08-07T00:42:02.158Z,89.30
2022-08-07T00:47:15.785Z,89.40
2022-08-07T00:52:33.337Z,89.70
2022-08-07T00:57:38.380Z,90.10
2022-08-07T01:02:57.480Z,90.20
2022-08-07T01:07:59.835Z,90.60
2022-08-07T01:13:01.732Z,90.90
2022-08-07T01:18:05.054Z,91.70
2022-08-07T01:23:13.083Z,92.20
2022-08-07T01:28:15.221Z,92.70
2022-08-07T01:33:17.308Z,93.00
2022-08-07T01:38:25.385Z,93.60
2022-08-07T01:43:38.300Z,94.20
2022-08-07T01:48:42.183Z,94.40
2022-08-07T01:54:12.172Z,94.90
2022-08-07T01:59:22.514Z,95.30
2022-08-07T02:04:37.304Z,95.90
2022-08-07T02:09:52.952Z,96.40
2022-08-07T02:15:01.357Z,96.80
2022-08-07T02:20:17.552Z,97.30
2022-08-07T02:26:10.081Z,97.70
2022-08-07T02:30:50.517Z,98.20
2022-08-07T02:36:29.684Z,98.60
2022-08-07T02:41:21.783Z,99.00
2022-08-07T02:46:26.294Z,99.50
2022-08-07T02:51:49.939Z,99.90
2022-08-07T02:56:56.229Z,99.90
2022-08-07T03:02:01.947Z,99.90
2022-08-07T03:07:10.395Z,99.90
2022-08-07T03:12:21.942Z,99.90
2022-08-07T03:17:24.200Z,99.90
2022-08-07T03:22:29.553Z,99.90
2022-08-07T03:27:59.412Z,99.90
2022-08-07T03:32:58.841Z,99.90
2022-08-07T03:38:04.735Z,99.90
2022-08-07T03:43:13.783Z,99.90
2022-08-07T03:48:16.663Z,99.90
2022-08-07T03:53:18.330Z,99.90
2022-08-07T03:59:08.202Z,99.90
2022-08-07T04:03:55.493Z,99.90
2022-08-07T04:08:57.803Z,99.90
2022-08-07T04:14:33.104Z,99.90
2022-08-07T04:19:25.327Z,99.90
2022-08-07T04:24:48.774Z,99.90
2022-08-07T04:30:01.824Z,99.90
2022-08-07T04:35:06.310Z,99.90
2022-08-07T04:40:09.382Z,99.90
2022-08-07T04:45:14.267Z,99.90
2022-08-07T04:50:30.758Z,99.90
2022-08-07T04:58:12.384Z,99.90
2022-08-07T05:01:18.258Z,99.90
2022-08-07T05:06:43.406Z,99.90
2022-08-07T05:11:58.349Z,99.90
2022-08-07T05:17:05.750Z,99.90
2022-08-07T05:22:26.759Z,99.90
2022-08-07T05:28:02.642Z,99.90
2022-08-07T05:32:54.504Z,99.90
2022-08-07T05:38:08.770Z,99.90
2022-08-07T05:43:11.934Z,99.90
2022-08-07T05:48:15.279Z,99.90
2022-08-07T05:54:13.219Z,99.90
2022-08-07T05:58:41.383Z,99.90
2022-08-07T06:04:01.085Z,99.90
2022-08-07T06:09:04.844Z,99.90
2022-08-07T06:14:12.400Z,99.90
2022-08-07T06:19:57.531Z,99.90
2022-08-07T06:24:55.655Z,99.90
2022-08-07T06:30:00.849Z,99.90
2022-08-07T06:35:03.304Z,99.90
2022-08-07T06:40:21.181Z,99.90
2022-08-07T06:45:24.748Z,99.90
2022-08-07T06:50:27.619Z,99.70
2022-08-07T06:56:00.065Z,99.50
2022-08-07T07:00:57.866Z,98.70
2022-08-07T07:06:04.026Z,98.50
2022-08-07T07:11:13.235Z,97.60
2022-08-07T07:16:20.238Z,97.90
2022-08-07T07:22:04.298Z,97.20
2022-08-07T07:26:53.890Z,96.90
2022-08-07T07:31:57.712Z,96.80
2022-08-07T07:37:14.691Z,96.20
2022-08-07T07:42:33.236Z,95.70
2022-08-07T07:47:52.043Z,95.50
2022-08-07T07:52:56.452Z,94.90
2022-08-07T07:57:58.836Z,94.40
2022-08-07T08:03:09.310Z,95.00
2022-08-07T08:08:34.983Z,94.40
2022-08-07T08:13:53.040Z,93.70
2022-08-07T08:18:58.143Z,95.30
2022-08-07T08:24:44.751Z,93.30
2022-08-07T08:29:55.653Z,93.40
2022-08-07T08:34:59.727Z,92.40
2022-08-07T08:40:02.756Z,92.10
2022-08-07T08:45:41.829Z,91.90
2022-08-07T08:51:49.796Z,91.50
2022-08-07T08:56:50.417Z,91.00
2022-08-07T09:02:35.254Z,90.30
2022-08-07T09:07:59.422Z,89.40
2022-08-07T09:13:36.770Z,88.50
2022-08-07T09:19:07.330Z,87.10
2022-08-07T09:24:58.511Z,88.70
2022-08-07T09:30:08.966Z,88.00
2022-08-07T09:36:04.387Z,87.40
2022-08-07T09:41:09.293Z,85.70
2022-08-07T09:47:50.135Z,87.20
2022-08-07T09:52:34.208Z,84.70
2022-08-07T09:58:09.302Z,84.50
2022-08-07T10:04:05.879Z,85.20
2022-08-07T10:09:42.679Z,84.90
2022-08-07T10:15:15.422Z,80.90
2022-08-07T10:20:50.131Z,81.70
2022-08-07T10:26:24.649Z,78.40
2022-08-07T10:31:38.962Z,77.00
2022-08-07T10:37:12.569Z,75.80
2022-08-07T10:42:50.058Z,76.10
2022-08-07T10:48:14.321Z,73.00
2022-08-07T10:53:43.902Z,72.30
2022-08-07T10:59:01.889Z,71.70
2022-08-07T11:04:32.062Z,70.50
2022-08-07T11:10:08.531Z,68.30
2022-08-07T11:15:26.340Z,68.50
2022-08-07T11:20:56.465Z,64.50
2022-08-07T11:26:17.469Z,67.00
2022-08-07T11:31:38.893Z,65.20
2022-08-07T11:36:56.630Z,63.10
2022-08-07T11:42:30.338Z,64.40
2022-08-07T11:47:58.855Z,61.40
2022-08-07T11:53:22.504Z,61.40
2022-08-07T11:58:49.716Z,60.80
2022-08-07T12:04:24.324Z,60.00
2022-08-07T12:09:46.214Z,62.20
2022-08-07T12:15:08.079Z,61.10
2022-08-07T12:20:32.278Z,59.20
2022-08-07T12:26:22.754Z,57.60
2022-08-07T12:31:53.339Z,58.80
2022-08-07T12:36:54.796Z,58.00
2022-08-07T12:41:58.169Z,58.30
2022-08-07T12:47:26.981Z,57.10
2022-08-07T12:52:34.967Z,56.70
2022-08-07T12:58:00.314Z,56.40
2022-08-07T13:03:27.033Z,55.60
2022-08-07T13:08:59.274Z,57.60
2022-08-07T13:14:24.260Z,57.00
2022-08-07T13:19:50.740Z,56.30
2022-08-07T13:25:06.043Z,55.50
2022-08-07T13:30:19.523Z,53.50
2022-08-07T13:36:00.436Z,54.00
2022-08-07T13:41:42.346Z,52.80
2022-08-07T13:46:54.285Z,52.90
2022-08-07T13:52:16.461Z,53.50
2022-08-07T13:57:24.189Z,52.00
2022-08-07T14:02:29.755Z,52.00
2022-08-07T14:08:00.946Z,51.30
2022-08-07T14:13:04.855Z,51.10
2022-08-07T14:18:28.742Z,50.50
2022-08-07T14:24:01.131Z,50.10
2022-08-07T14:29:04.314Z,50.80
2022-08-07T14:34:10.117Z,49.20
2022-08-07T14:40:16.078Z,48.60
2022-08-07T14:44:37.325Z,49.20
2022-08-07T14:49:58.056Z,47.80
2022-08-07T14:55:02.609Z,47.20
2022-08-07T15:00:07.994Z,47.90
2022-08-07T15:05:20.618Z,47.80
2022-08-07T15:10:29.903Z,48.20
2022-08-07T15:21:58.642Z,46.90
2022-08-07T15:27:10.400Z,45.50
2022-08-07T15:32:12.796Z,45.30
2022-08-07T15:37:16.563Z,46.30
2022-08-07T15:42:52.716Z,45.70
2022-08-07T15:48:01.950Z,45.40
2022-08-07T15:53:11.151Z,45.10
2022-08-07T15:58:21.192Z,45.20
2022-08-07T16:03:47.080Z,46.00
2022-08-07T16:08:48.175Z,46.90
2022-08-07T16:14:11.398Z,45.90
2022-08-07T16:19:59.592Z,46.40
2022-08-07T16:25:54.210Z,45.70
2022-08-07T16:31:50.130Z,46.90
2022-08-07T16:38:04.398Z,46.00
2022-08-07T16:42:55.140Z,46.70
2022-08-07T16:48:09.395Z,46.50
2022-08-07T16:54:06.180Z,46.40
2022-08-07T16:59:24.425Z,46.30
2022-08-07T17:06:28.176Z,46.60
2022-08-07T17:10:55.605Z,46.70
2022-08-07T17:16:16.554Z,47.10
2022-08-07T17:21:23.680Z,47.20
2022-08-07T17:26:49.830Z,47.50
2022-08-07T17:32:06.411Z,47.60
2022-08-07T17:38:05.552Z,47.90
2022-08-07T17:42:59.629Z,47.80
2022-08-07T17:48:17.103Z,47.90
2022-08-07T17:54:01.553Z,48.70
2022-08-07T17:59:24.236Z,48.10
2022-08-07T18:04:45.594Z,48.40
2022-08-07T18:10:05.881Z,49.20
2022-08-07T18:15:22.579Z,49.70
2022-08-07T18:21:08.187Z,50.40
2022-08-07T18:26:14.727Z,50.90
2022-08-07T18:31:23.719Z,51.50
2022-08-07T18:36:33.515Z,53.00
2022-08-07T18:41:53.615Z,52.60
2022-08-07T18:47:06.856Z,53.00
2022-08-07T18:52:52.626Z,53.20
2022-08-07T18:58:15.212Z,53.80
2022-08-07T19:03:16.938Z,54.10
2022-08-07T19:08:46.243Z,54.50
2022-08-07T19:14:20.096Z,55.10
2022-08-07T19:19:53.444Z,55.60
2022-08-07T19:24:55.566Z,56.20
2022-08-07T19:30:57.375Z,56.60
2022-08-07T19:35:26.620Z,57.00
2022-08-07T19:40:36.450Z,57.50
2022-08-07T19:46:07.270Z,57.90
2022-08-07T19:51:20.480Z,58.40
2022-08-07T19:57:51.765Z,58.70
2022-08-07T20:01:57.408Z,59.20
2022-08-07T20:07:00.708Z,59.60
2022-08-07T20:12:31.510Z,59.90
2022-08-07T20:17:26.797Z,60.10
2022-08-07T20:22:34.113Z,60.40
2022-08-07T20:27:46.077Z,60.60
2022-08-07T20:32:54.860Z,61.30
2022-08-07T20:38:00.869Z,60.90
2022-08-07T20:43:14.742Z,61.00
2022-08-07T20:48:29.598Z,61.10
2022-08-07T20:54:04.202Z,61.90
2022-08-07T20:59:01.292Z,61.90
2022-08-07T21:04:21.705Z,62.40
2022-08-07T21:09:52.171Z,62.50
2022-08-07T21:14:56.908Z,63.30
2022-08-07T21:20:04.578Z,64.20
2022-08-07T21:25:13.746Z,64.30
2022-08-07T21:30:18.781Z,64.50
2022-08-07T21:36:03.815Z,64.40
2022-08-07T21:41:11.018Z,64.60
2022-08-07T21:46:25.295Z,64.60
2022-08-07T21:51:51.730Z,64.40
2022-08-07T21:57:40.014Z,64.40
2022-08-07T22:03:10.171Z,64.20
2022-08-07T22:08:14.225Z,64.20
2022-08-07T22:13:24.407Z,64.50
2022-08-07T22:19:04.912Z,64.90
2022-08-07T22:24:19.614Z,65.40
2022-08-07T22:29:54.366Z,66.30
2022-08-07T22:35:00.376Z,67.10
2022-08-07T22:40:41.657Z,68.10
2022-08-07T22:46:43.165Z,68.80
2022-08-07T22:52:00.410Z,69.10
2022-08-07T22:57:08.061Z,69.40
2022-08-07T23:02:25.638Z,69.80
2022-08-07T23:08:04.875Z,70.00
2022-08-07T23:13:49.131Z,70.40
2022-08-07T23:20:07.297Z,70.60
2022-08-07T23:25:36.580Z,71.30
2022-08-07T23:31:06.376Z,71.50
2022-08-07T23:36:39.054Z,72.20
2022-08-07T23:42:04.527Z,73.30
2022-08-07T23:47:48.074Z,74.30
2022-08-07T23:53:06.259Z,75.30
2022-08-07T23:58:18.783Z,75.40
